Time;durP1;ratioP1;P1;durP2;ratioP2;P2;SDS_P1;SDS_P2;PMS_P1;PMS_P2;Temp;Humidity;BMP_temperature;BMP_pressure;BME280_temperature;BME280_humidity;BME280_pressure;Samples;Min_cycle;Max_cycle;Signal;HPM_P1;HPM_P2
2022/12/08 00:02:21;;;;;;;;;;;;;;;;;;5069440;28;3195;-59
2022/12/08 00:10:13;;;;;;;;;;;;;;;;;;5053555;28;5018;-59
2022/12/08 00:12:39;;;;;;;;;;;;;;;;;;5051278;28;5162;-60
2022/12/08 00:15:04;;;;;;;;;;;;;;;;;;5059879;28;5099;-59
2022/12/08 00:17:30;;;;;;;;;;;;;;;;;;5052690;28;3561;-59
2022/12/08 00:19:55;;;;;;;;;;;;;;;;;;5058156;28;4410;-59
2022/12/08 00:22:20;;;;;;;;;;;;;;;;;;5063988;28;4887;-59
2022/12/08 00:24:45;;;;;;;;;;;;;;;;;;5053916;28;4502;-59
2022/12/08 00:27:11;;;;;;;;;;;;;;;;;;5051473;28;5180;-60
2022/12/08 00:29:37;;;;;;;;;;;;;;;;;;5055494;28;3218;-59
2022/12/08 00:32:02;;;;;;;;;;;;;;;;;;5051468;28;4984;-59
2022/12/08 00:34:27;;;;;;;;;;;;;;;;;;5059095;28;4960;-59
2022/12/08 00:36:52;;;;;;;;;;;;;;;;;;5044263;28;5075;-58
2022/12/08 00:39:18;;;;;;;;;;;;;;;;;;5050320;28;4746;-61
2022/12/08 00:44:27;;;;;;;;;;;;;;;;;;5058546;28;4590;-61
2022/12/08 00:46:52;;;;;;;;;;;;;;;;;;5048092;28;5122;-60
2022/12/08 00:49:17;;;;;;;;;;;;;;;;;;5062806;28;5090;-59
2022/12/08 00:51:43;;;;;;;;;;;;;;;;;;5068079;28;4908;-60
2022/12/08 00:54:08;;;;;;;;;;;;;;;;;;5057187;28;4779;-58
2022/12/08 00:56:33;;;;;;;;;;;;;;;;;;5052081;28;3308;-61
2022/12/08 00:58:59;;;;;;;;;;;;;;;;;;5049857;28;5274;-60
2022/12/08 01:01:24;;;;;;;;;;;;;;;;;;5056029;28;4537;-57
2022/12/08 01:03:49;;;;;;;;;;;;;;;;;;5045578;28;4477;-59
2022/12/08 01:06:14;;;;;;;;;;;;;;;;;;5052278;28;5035;-59
2022/12/08 01:08:40;;;;;;;;;;;;;;;;;;5052503;28;3398;-57
2022/12/08 01:11:05;;;;;;;;;;;;;;;;;;5052642;28;5110;-58
2022/12/08 01:13:31;;;;;;;;;;;;;;;;;;5049614;28;5032;-56
2022/12/08 01:15:56;;;;;;;;;;;;;;;;;;5048128;28;4690;-61
2022/12/08 01:18:21;;;;;;;;;;;;;;;;;;5049457;28;5084;-58
2022/12/08 01:20:47;;;;;;;;;;;;;;;;;;5038299;28;3548;-60
2022/12/08 01:23:12;;;;;;;;;;;;;;;;;;5060292;28;4983;-60
2022/12/08 01:25:37;;;;;;;;;;;;;;;;;;5055201;28;5115;-56
2022/12/08 01:28:02;;;;;;;;;;;;;;;;;;5060007;28;5112;-60
2022/12/08 01:30:28;;;;;;;;;;;;;;;;;;5060018;28;5042;-60
2022/12/08 01:32:53;;;;;;;;;;;;;;;;;;5054822;28;5408;-59
2022/12/08 01:35:18;;;;;;;;;;;;;;;;;;5064790;28;3541;-60
2022/12/08 01:37:43;;;;;;;;;;;;;;;;;;5057664;28;4666;-59
2022/12/08 01:40:09;;;;;;;;;;;;;;;;;;5059664;28;4532;-59
2022/12/08 01:42:37;;;;;;;;;;;;;;;;;;5035295;28;5050;-57
2022/12/08 01:45:04;;;;;;;;;;;;;;;;;;5053954;28;4896;-59
2022/12/08 01:47:31;;;;;;;;;;;;;;;;;;5054750;28;3413;-60
2022/12/08 01:49:56;;;;;;;;;;;;;;;;;;5019963;28;4929;-60
2022/12/08 01:52:36;;;;;;;;;;;;;;;;;;5031980;28;4895;-57
2022/12/08 01:55:05;;;;;;;;;;;;;;;;;;5057493;28;5184;-56
2022/12/08 01:57:36;;;;;;;;;;;;;;;;;;5040327;28;5420;-58
2022/12/08 02:00:04;;;;;;;;;;;;;;;;;;5058681;28;5131;-57
2022/12/08 02:02:31;;;;;;;;;;;;;;;;;;5051579;28;3430;-61
2022/12/08 02:04:56;;;;;;;;;;;;;;;;;;5041426;28;5026;-60
2022/12/08 02:07:21;;;;;;;;;;;;;;;;;;5033866;28;4497;-56
2022/12/08 02:09:46;;;;;;;;;;;;;;;;;;5038798;28;5541;-59
2022/12/08 02:12:12;;;;;;;;;;;;;;;;;;5057453;28;5147;-59
2022/12/08 02:14:37;;;;;;;;;;;;;;;;;;5055454;28;3449;-61
2022/12/08 02:17:34;;;;;;;;;;;;;;;;;;5058513;28;4963;-59
2022/12/08 02:19:59;;;;;;;;;;;;;;;;;;5014134;28;5126;-60
2022/12/08 02:22:34;;;;;;;;;;;;;;;;;;5058608;28;5218;-60
2022/12/08 02:25:00;;;;;;;;;;;;;;;;;;5029456;28;5094;-60
2022/12/08 02:27:28;;;;;;;;;;;;;;;;;;5055935;28;5077;-57
2022/12/08 02:30:06;;;;;;;;;;;;;;;;;;5054728;28;5029;-60
2022/12/08 02:32:43;;;;;;;;;;;;;;;;;;5059122;28;3304;-57
2022/12/08 02:35:10;;;;;;;;;;;;;;;;;;5051452;28;4464;-60
2022/12/08 02:37:40;;;;;;;;;;;;;;;;;;5031675;28;5277;-59
2022/12/08 02:40:12;;;;;;;;;;;;;;;;;;5056856;28;4534;-60
2022/12/08 02:42:46;;;;;;;;;;;;;;;;;;5037050;28;5034;-60
2022/12/08 02:45:11;;;;;;;;;;;;;;;;;;5032759;28;5080;-60
2022/12/08 02:47:36;;;;;;;;;;;;;;;;;;5062045;28;3256;-60
2022/12/08 02:50:01;;;;;;;;;;;;;;;;;;5040446;28;4990;-60
2022/12/08 02:52:27;;;;;;;;;;;;;;;;;;5044238;28;4983;-57
2022/12/08 02:54:53;;;;;;;;;;;;;;;;;;5058747;28;5089;-59
2022/12/08 02:57:33;;;;;;;;;;;;;;;;;;5038911;28;5088;-60
2022/12/08 03:00:08;;;;;;;;;;;;;;;;;;5035218;28;5060;-61
2022/12/08 03:02:33;;;;;;;;;;;;;;;;;;5067708;28;3709;-61
2022/12/08 03:04:58;;;;;;;;;;;;;;;;;;5054824;28;4986;-61
2022/12/08 03:07:26;;;;;;;;;;;;;;;;;;5061267;28;5212;-60
2022/12/08 03:09:55;;;;;;;;;;;;;;;;;;5042295;28;4976;-57
2022/12/08 03:12:25;;;;;;;;;;;;;;;;;;5052168;28;5216;-60
2022/12/08 03:14:51;;;;;;;;;;;;;;;;;;5043980;28;5430;-58
2022/12/08 03:17:17;;;;;;;;;;;;;;;;;;5042372;28;3707;-61
2022/12/08 03:19:42;;;;;;;;;;;;;;;;;;5061359;28;4564;-60
2022/12/08 03:22:08;;;;;;;;;;;;;;;;;;5058283;28;5112;-59
2022/12/08 03:24:56;;;;;;;;;;;;;;;;;;5046766;28;5739;-60
2022/12/08 03:27:25;;;;;;;;;;;;;;;;;;5058310;28;4539;-60
2022/12/08 03:29:51;;;;;;;;;;;;;;;;;;5057192;28;4947;-57
2022/12/08 03:32:20;;;;;;;;;;;;;;;;;;5038383;28;3779;-60
2022/12/08 03:34:45;;;;;;;;;;;;;;;;;;5066912;28;5021;-60
2022/12/08 03:37:11;;;;;;;;;;;;;;;;;;5026986;28;5038;-59
2022/12/08 03:39:36;;;;;;;;;;;;;;;;;;5054196;28;5027;-60
2022/12/08 03:42:01;;;;;;;;;;;;;;;;;;5057827;28;5027;-60
2022/12/08 03:44:27;;;;;;;;;;;;;;;;;;5033435;28;3286;-58
2022/12/08 03:46:52;;;;;;;;;;;;;;;;;;5046565;28;4700;-59
2022/12/08 03:49:17;;;;;;;;;;;;;;;;;;5048115;28;5003;-60
2022/12/08 03:51:42;;;;;;;;;;;;;;;;;;5062677;28;5112;-58
2022/12/08 03:54:08;;;;;;;;;;;;;;;;;;5048214;28;4775;-59
2022/12/08 03:56:34;;;;;;;;;;;;;;;;;;5055630;28;3374;-59
2022/12/08 03:58:59;;;;;;;;;;;;;;;;;;5056498;28;4643;-59
2022/12/08 04:01:24;;;;;;;;;;;;;;;;;;5053288;28;5055;-58
2022/12/08 04:03:50;;;;;;;;;;;;;;;;;;5035817;28;4930;-60
2022/12/08 04:06:15;;;;;;;;;;;;;;;;;;5059817;28;4959;-59
2022/12/08 04:08:40;;;;;;;;;;;;;;;;;;5051896;28;3275;-60
2022/12/08 04:11:06;;;;;;;;;;;;;;;;;;5042400;28;4531;-60
2022/12/08 04:13:32;;;;;;;;;;;;;;;;;;5049430;28;5058;-55
2022/12/08 04:15:57;;;;;;;;;;;;;;;;;;5055872;28;5067;-60
2022/12/08 04:18:22;;;;;;;;;;;;;;;;;;5058104;28;5248;-59
2022/12/08 04:20:48;;;;;;;;;;;;;;;;;;5052703;28;5748;-53
2022/12/08 04:23:13;;;;;;;;;;;;;;;;;;5051955;28;3661;-60
2022/12/08 04:25:38;;;;;;;;;;;;;;;;;;5053448;28;5021;-60
2022/12/08 04:28:03;;;;;;;;;;;;;;;;;;5063789;28;4984;-59
2022/12/08 04:30:29;;;;;;;;;;;;;;;;;;5064043;28;5112;-60
2022/12/08 04:32:54;;;;;;;;;;;;;;;;;;5052305;28;5180;-58
2022/12/08 04:35:19;;;;;;;;;;;;;;;;;;5051942;28;3781;-59
2022/12/08 04:37:44;;;;;;;;;;;;;;;;;;5034560;28;5073;-59
2022/12/08 04:40:10;;;;;;;;;;;;;;;;;;5059784;28;5070;-61
2022/12/08 04:42:35;;;;;;;;;;;;;;;;;;5037341;28;5119;-59
2022/12/08 04:45:01;;;;;;;;;;;;;;;;;;5049450;28;5066;-57
2022/12/08 04:47:26;;;;;;;;;;;;;;;;;;5065289;28;1147;-56
2022/12/08 04:49:51;;;;;;;;;;;;;;;;;;5037849;28;5025;-60
2022/12/08 04:52:17;;;;;;;;;;;;;;;;;;5055773;28;5004;-59
2022/12/08 04:54:42;;;;;;;;;;;;;;;;;;5055420;28;4577;-60
2022/12/08 04:57:07;;;;;;;;;;;;;;;;;;5055630;28;5268;-60
2022/12/08 04:59:32;;;;;;;;;;;;;;;;;;5061901;28;3568;-60
2022/12/08 05:01:57;;;;;;;;;;;;;;;;;;5060271;28;5019;-59
2022/12/08 05:04:23;;;;;;;;;;;;;;;;;;5059562;28;4942;-60
2022/12/08 05:06:48;;;;;;;;;;;;;;;;;;5058113;28;4931;-60
2022/12/08 05:09:13;;;;;;;;;;;;;;;;;;5055235;28;5073;-60
2022/12/08 05:11:40;;;;;;;;;;;;;;;;;;5038193;28;3405;-60
2022/12/08 05:14:15;;;;;;;;;;;;;;;;;;5055284;28;5019;-61
2022/12/08 05:16:40;;;;;;;;;;;;;;;;;;5040943;28;4896;-60
2022/12/08 05:19:06;;;;;;;;;;;;;;;;;;5058802;28;4981;-60
2022/12/08 05:21:31;;;;;;;;;;;;;;;;;;5061663;28;4976;-55
2022/12/08 05:23:56;;;;;;;;;;;;;;;;;;5060562;28;5235;-59
2022/12/08 05:26:21;;;;;;;;;;;;;;;;;;5061230;28;3544;-59
2022/12/08 05:28:47;;;;;;;;;;;;;;;;;;5061541;28;5313;-61
2022/12/08 05:31:12;;;;;;;;;;;;;;;;;;5044082;28;4944;-60
2022/12/08 05:33:37;;;;;;;;;;;;;;;;;;5052560;28;5101;-59
2022/12/08 05:36:03;;;;;;;;;;;;;;;;;;5055651;28;5169;-60
2022/12/08 05:38:28;;;;;;;;;;;;;;;;;;5062271;28;3481;-60
2022/12/08 05:40:53;;;;;;;;;;;;;;;;;;5061282;28;5051;-57
2022/12/08 05:43:18;;;;;;;;;;;;;;;;;;5063011;28;5132;-59
2022/12/08 05:45:44;;;;;;;;;;;;;;;;;;5060901;28;5075;-60
2022/12/08 05:48:09;;;;;;;;;;;;;;;;;;5049521;28;4876;-56
2022/12/08 05:50:34;;;;;;;;;;;;;;;;;;5060212;28;1665;-59
2022/12/08 05:52:59;;;;;;;;;;;;;;;;;;5059345;28;4975;-59
2022/12/08 05:55:25;;;;;;;;;;;;;;;;;;5057086;28;4683;-60
2022/12/08 05:57:50;;;;;;;;;;;;;;;;;;5044789;28;5091;-60
2022/12/08 06:00:15;;;;;;;;;;;;;;;;;;5058068;28;5124;-60
2022/12/08 06:02:41;;;;;;;;;;;;;;;;;;5053329;28;3458;-60
2022/12/08 06:05:06;;;;;;;;;;;;;;;;;;5062454;28;4913;-59
2022/12/08 06:07:31;;;;;;;;;;;;;;;;;;5056373;28;5118;-58
2022/12/08 06:09:56;;;;;;;;;;;;;;;;;;5052405;28;5095;-59
2022/12/08 06:12:23;;;;;;;;;;;;;;;;;;5050360;28;5088;-60
2022/12/08 06:14:48;;;;;;;;;;;;;;;;;;5061459;28;5455;-57
2022/12/08 06:17:13;;;;;;;;;;;;;;;;;;5062356;28;3454;-60
2022/12/08 06:19:38;;;;;;;;;;;;;;;;;;5050837;28;4430;-60
2022/12/08 06:22:04;;;;;;;;;;;;;;;;;;5067634;28;5067;-59
2022/12/08 06:24:29;;;;;;;;;;;;;;;;;;5067776;28;5005;-60
2022/12/08 06:26:54;;;;;;;;;;;;;;;;;;5058141;28;5208;-59
2022/12/08 06:29:19;;;;;;;;;;;;;;;;;;5056058;28;3541;-60
2022/12/08 06:31:45;;;;;;;;;;;;;;;;;;5053282;28;5020;-60
2022/12/08 06:34:10;;;;;;;;;;;;;;;;;;5056360;28;5081;-60
2022/12/08 06:36:35;;;;;;;;;;;;;;;;;;5050586;28;4834;-61
2022/12/08 06:39:01;;;;;;;;;;;;;;;;;;5052036;28;5004;-59
2022/12/08 06:41:26;;;;;;;;;;;;;;;;;;5061051;28;3569;-60
2022/12/08 06:43:54;;;;;;;;;;;;;;;;;;5057497;28;5056;-57
2022/12/08 06:46:19;;;;;;;;;;;;;;;;;;5051834;28;5066;-61
2022/12/08 06:48:44;;;;;;;;;;;;;;;;;;5055120;28;4890;-60
2022/12/08 06:51:11;;;;;;;;;;;;;;;;;;5053648;28;4982;-61
2022/12/08 06:53:36;;;;;;;;;;;;;;;;;;5051709;28;4464;-59
2022/12/08 06:56:02;;;;;;;;;;;;;;;;;;5063879;28;4904;-59
2022/12/08 06:58:27;;;;;;;;;;;;;;;;;;5057679;28;5067;-61
2022/12/08 07:00:52;;;;;;;;;;;;;;;;;;5050261;28;5213;-65
2022/12/08 07:03:18;;;;;;;;;;;;;;;;;;5048752;28;5210;-68
2022/12/08 07:05:43;;;;;;;;;;;;;;;;;;5049047;28;3468;-65
2022/12/08 07:08:08;;;;;;;;;;;;;;;;;;5057514;28;4814;-70
2022/12/08 07:10:33;;;;;;;;;;;;;;;;;;5053251;28;4540;-70
2022/12/08 07:12:59;;;;;;;;;;;;;;;;;;5047687;28;5113;-69
2022/12/08 07:15:24;;;;;;;;;;;;;;;;;;5049668;28;5284;-70
2022/12/08 07:17:50;;;;;;;;;;;;;;;;;;5049584;28;5128;-69
2022/12/08 07:20:15;;;;;;;;;;;;;;;;;;5056026;28;3549;-70
2022/12/08 07:22:40;;;;;;;;;;;;;;;;;;5061354;28;5542;-67
2022/12/08 07:25:06;;;;;;;;;;;;;;;;;;5058821;28;5092;-65
2022/12/08 07:27:31;;;;;;;;;;;;;;;;;;5038519;28;4979;-57
2022/12/08 07:29:56;;;;;;;;;;;;;;;;;;5064362;28;5004;-67
2022/12/08 07:32:22;;;;;;;;;;;;;;;;;;5052414;28;3324;-68
2022/12/08 07:34:47;;;;;;;;;;;;;;;;;;5049843;28;5254;-63
2022/12/08 07:37:12;;;;;;;;;;;;;;;;;;5032449;28;5164;-63
2022/12/08 07:39:38;;;;;;;;;;;;;;;;;;5047011;28;5105;-68
2022/12/08 07:42:03;;;;;;;;;;;;;;;;;;5037626;28;5039;-68
2022/12/08 07:44:28;;;;;;;;;;;;;;;;;;5063314;28;1973;-69
2022/12/08 07:46:54;;;;;;;;;;;;;;;;;;5045572;28;4485;-66
2022/12/08 07:49:19;;;;;;;;;;;;;;;;;;5060111;28;5207;-64
2022/12/08 07:51:44;;;;;;;;;;;;;;;;;;5066594;28;4671;-66
2022/12/08 07:54:10;;;;;;;;;;;;;;;;;;5056581;28;4720;-66
2022/12/08 07:56:35;;;;;;;;;;;;;;;;;;5041377;28;3555;-62
2022/12/08 07:59:01;;;;;;;;;;;;;;;;;;5032413;28;4995;-61
2022/12/08 08:01:27;;;;;;;;;;;;;;;;;;5038427;28;4492;-62
2022/12/08 08:03:53;;;;;;;;;;;;;;;;;;5065678;28;4866;-62
2022/12/08 08:06:18;;;;;;;;;;;;;;;;;;5056606;28;5587;-61
2022/12/08 08:08:43;;;;;;;;;;;;;;;;;;5055787;28;3363;-64
2022/12/08 08:11:08;;;;;;;;;;;;;;;;;;5063848;28;4387;-60
2022/12/08 08:13:34;;;;;;;;;;;;;;;;;;5053422;28;4590;-60
2022/12/08 08:16:03;;;;;;;;;;;;;;;;;;5064648;28;4543;-59
2022/12/08 08:18:28;;;;;;;;;;;;;;;;;;5046432;28;4491;-59
2022/12/08 08:20:53;;;;;;;;;;;;;;;;;;5053331;28;5048;-58
2022/12/08 08:23:19;;;;;;;;;;;;;;;;;;5066583;28;1326;-60
2022/12/08 08:25:44;;;;;;;;;;;;;;;;;;5059895;28;5501;-60
2022/12/08 08:28:09;;;;;;;;;;;;;;;;;;5060795;28;4917;-62
2022/12/08 08:30:34;;;;;;;;;;;;;;;;;;5054095;28;4580;-60
2022/12/08 08:33:00;;;;;;;;;;;;;;;;;;5058232;28;4892;-61
2022/12/08 08:35:25;;;;;;;;;;;;;;;;;;5058864;28;3531;-61
2022/12/08 08:37:50;;;;;;;;;;;;;;;;;;5056831;28;4998;-60
2022/12/08 08:40:16;;;;;;;;;;;;;;;;;;5052176;28;4899;-60
2022/12/08 08:42:41;;;;;;;;;;;;;;;;;;5054932;28;4513;-60
2022/12/08 08:45:07;;;;;;;;;;;;;;;;;;5049335;28;5139;-60
2022/12/08 08:47:32;;;;;;;;;;;;;;;;;;5055383;28;3220;-59
2022/12/08 08:49:57;;;;;;;;;;;;;;;;;;5056788;28;5425;-59
2022/12/08 08:52:22;;;;;;;;;;;;;;;;;;5068156;28;5317;-61
2022/12/08 08:54:48;;;;;;;;;;;;;;;;;;5068487;28;5026;-60
2022/12/08 08:57:13;;;;;;;;;;;;;;;;;;5048309;28;4885;-61
2022/12/08 08:59:38;;;;;;;;;;;;;;;;;;5063008;28;3514;-61
2022/12/08 09:02:03;;;;;;;;;;;;;;;;;;5059750;28;5156;-59
2022/12/08 09:04:29;;;;;;;;;;;;;;;;;;5069718;28;5007;-60
2022/12/08 09:06:54;;;;;;;;;;;;;;;;;;5057545;28;5321;-60
2022/12/08 09:09:19;;;;;;;;;;;;;;;;;;5065054;28;5003;-60
2022/12/08 09:11:44;;;;;;;;;;;;;;;;;;5067346;28;1221;-59
2022/12/08 09:14:10;;;;;;;;;;;;;;;;;;5071216;28;4955;-58
2022/12/08 09:16:36;;;;;;;;;;;;;;;;;;5060648;28;5113;-60
2022/12/08 09:19:01;;;;;;;;;;;;;;;;;;5065980;28;4468;-59
2022/12/08 09:21:26;;;;;;;;;;;;;;;;;;5051493;28;4702;-58
2022/12/08 09:23:52;;;;;;;;;;;;;;;;;;5062662;28;4909;-60
2022/12/08 09:26:21;;;;;;;;;;;;;;;;;;5052858;28;1126;-62
2022/12/08 09:28:46;;;;;;;;;;;;;;;;;;5051062;28;5084;-62
2022/12/08 09:31:15;;;;;;;;;;;;;;;;;;5055822;28;5207;-62
2022/12/08 09:33:40;;;;;;;;;;;;;;;;;;5060462;28;5107;-62
2022/12/08 09:36:05;;;;;;;;;;;;;;;;;;5058715;28;5015;-61
2022/12/08 09:38:31;;;;;;;;;;;;;;;;;;5055491;28;1485;-61
2022/12/08 09:40:56;;;;;;;;;;;;;;;;;;5062961;28;4488;-62
2022/12/08 09:43:40;;;;;;;;;;;;;;;;;;5047948;28;5088;-63
2022/12/08 09:46:09;;;;;;;;;;;;;;;;;;5056776;28;5035;-61
2022/12/08 09:48:35;;;;;;;;;;;;;;;;;;5050771;28;5065;-63
2022/12/08 09:51:01;;;;;;;;;;;;;;;;;;5040707;28;4496;-61
2022/12/08 09:53:33;;;;;;;;;;;;;;;;;;5051919;28;4516;-62
2022/12/08 09:56:01;;;;;;;;;;;;;;;;;;5059346;28;4452;-63
2022/12/08 09:58:32;;;;;;;;;;;;;;;;;;5051714;28;5099;-62
2022/12/08 10:00:57;;;;;;;;;;;;;;;;;;5042409;28;5078;-69
2022/12/08 10:03:23;;;;;;;;;;;;;;;;;;5054872;28;4912;-71
2022/12/08 10:05:51;;;;;;;;;;;;;;;;;;5045341;28;5119;-58
2022/12/08 10:08:19;;;;;;;;;;;;;;;;;;5068000;28;1626;-62
2022/12/08 10:10:56;;;;;;;;;;;;;;;;;;5065523;28;5108;-62
2022/12/08 10:13:33;;;;;;;;;;;;;;;;;;5054519;28;5219;-58
2022/12/08 10:16:21;;;;;;;;;;;;;;;;;;5043657;28;4889;-59
2022/12/08 10:18:46;;;;;;;;;;;;;;;;;;5033976;28;5212;-60
2022/12/08 10:21:13;;;;;;;;;;;;;;;;;;5040672;28;5060;-61
2022/12/08 10:23:39;;;;;;;;;;;;;;;;;;5054019;28;3286;-60
2022/12/08 10:26:14;;;;;;;;;;;;;;;;;;5037972;28;5058;-60
2022/12/08 10:28:39;;;;;;;;;;;;;;;;;;5060266;28;5129;-59
2022/12/08 10:31:04;;;;;;;;;;;;;;;;;;5056803;28;4945;-58
2022/12/08 10:33:30;;;;;;;;;;;;;;;;;;5053146;28;4966;-58
2022/12/08 10:35:57;;;;;;;;;;;;;;;;;;5037671;28;5077;-59
2022/12/08 10:38:26;;;;;;;;;;;;;;;;;;5053076;28;3443;-59
2022/12/08 10:40:51;;;;;;;;;;;;;;;;;;5053047;28;5137;-58
2022/12/08 10:43:17;;;;;;;;;;;;;;;;;;5045335;28;5088;-59
2022/12/08 10:45:43;;;;;;;;;;;;;;;;;;5062927;28;5407;-59
2022/12/08 10:48:15;;;;;;;;;;;;;;;;;;5044775;28;5213;-60
2022/12/08 10:50:41;;;;;;;;;;;;;;;;;;5069809;28;1167;-58
2022/12/08 10:53:06;;;;;;;;;;;;;;;;;;5078020;28;5044;-58
2022/12/08 10:55:38;;;;;;;;;;;;;;;;;;5067608;28;4873;-58
2022/12/08 10:58:03;;;;;;;;;;;;;;;;;;5043863;28;4939;-64
2022/12/08 11:00:28;;;;;;;;;;;;;;;;;;5060216;28;5121;-63
2022/12/08 11:02:55;;;;;;;;;;;;;;;;;;5051088;28;4497;-60
2022/12/08 11:05:21;;;;;;;;;;;;;;;;;;5050951;28;3224;-61
2022/12/08 11:07:48;;;;;;;;;;;;;;;;;;5038279;28;4985;-60
2022/12/08 11:10:15;;;;;;;;;;;;;;;;;;5035817;28;5169;-62
2022/12/08 11:12:42;;;;;;;;;;;;;;;;;;5051592;28;4594;-60
2022/12/08 11:15:07;;;;;;;;;;;;;;;;;;5037937;28;4697;-58
2022/12/08 11:17:39;;;;;;;;;;;;;;;;;;5039190;28;3286;-60
2022/12/08 11:20:07;;;;;;;;;;;;;;;;;;5044247;28;5061;-63
2022/12/08 11:22:42;;;;;;;;;;;;;;;;;;5057579;28;4947;-62
2022/12/08 11:25:10;;;;;;;;;;;;;;;;;;5048628;28;5135;-64
2022/12/08 11:27:40;;;;;;;;;;;;;;;;;;5053351;28;4547;-63
2022/12/08 11:30:11;;;;;;;;;;;;;;;;;;5044533;28;5186;-63
2022/12/08 11:32:39;;;;;;;;;;;;;;;;;;5044347;28;1730;-65
2022/12/08 11:35:05;;;;;;;;;;;;;;;;;;5049146;28;5417;-64
2022/12/08 11:37:38;;;;;;;;;;;;;;;;;;5042112;28;4977;-62
2022/12/08 11:40:07;;;;;;;;;;;;;;;;;;5037410;28;5148;-63
2022/12/08 11:42:37;;;;;;;;;;;;;;;;;;5037367;28;5059;-61
2022/12/08 11:45:04;;;;;;;;;;;;;;;;;;5039539;28;5103;-63
2022/12/08 11:47:30;;;;;;;;;;;;;;;;;;5071902;28;3305;-63
2022/12/08 11:50:00;;;;;;;;;;;;;;;;;;5035392;28;5133;-63
2022/12/08 11:52:29;;;;;;;;;;;;;;;;;;5041982;28;4897;-64
2022/12/08 11:55:03;;;;;;;;;;;;;;;;;;5027816;28;5127;-64
2022/12/08 11:57:28;;;;;;;;;;;;;;;;;;5041491;28;5168;-62
2022/12/08 11:59:55;;;;;;;;;;;;;;;;;;5061183;28;4950;-63
2022/12/08 12:02:21;;;;;;;;;;;;;;;;;;5065137;28;1285;-63
2022/12/08 12:05:00;;;;;;;;;;;;;;;;;;5060250;28;4862;-63
2022/12/08 12:07:29;;;;;;;;;;;;;;;;;;5059884;28;5427;-65
2022/12/08 12:10:13;;;;;;;;;;;;;;;;;;5075711;28;5037;-61
2022/12/08 12:12:57;;;;;;;;;;;;;;;;;;5078120;28;5091;-65
2022/12/08 12:15:22;;;;;;;;;;;;;;;;;;5065663;28;5417;-60
2022/12/08 12:17:51;;;;;;;;;;;;;;;;;;5075026;28;3543;-60
2022/12/08 12:20:22;;;;;;;;;;;;;;;;;;5052807;28;4946;-62
2022/12/08 12:22:49;;;;;;;;;;;;;;;;;;5059489;28;4925;-63
2022/12/08 12:25:16;;;;;;;;;;;;;;;;;;5059564;28;4558;-65
2022/12/08 12:27:42;;;;;;;;;;;;;;;;;;5053549;28;5433;-65
2022/12/08 12:30:08;;;;;;;;;;;;;;;;;;5058316;28;4995;-66
2022/12/08 12:32:44;;;;;;;;;;;;;;;;;;5080187;28;3472;-68
2022/12/08 12:35:14;;;;;;;;;;;;;;;;;;5076489;28;5057;-68
2022/12/08 12:37:40;;;;;;;;;;;;;;;;;;5076826;28;5218;-69
2022/12/08 12:40:16;;;;;;;;;;;;;;;;;;5070198;28;4894;-69
2022/12/08 12:42:42;;;;;;;;;;;;;;;;;;5052771;28;5153;-68
2022/12/08 12:45:16;;;;;;;;;;;;;;;;;;5070423;28;5087;-68
2022/12/08 12:47:59;;;;;;;;;;;;;;;;;;5078202;28;1046;-65
2022/12/08 12:50:39;;;;;;;;;;;;;;;;;;5073501;28;4373;-68
2022/12/08 12:53:17;;;;;;;;;;;;;;;;;;5072833;28;5081;-66
2022/12/08 12:55:55;;;;;;;;;;;;;;;;;;5070168;28;4461;-67
2022/12/08 12:58:20;;;;;;;;;;;;;;;;;;5080114;28;5244;-67
2022/12/08 13:00:45;;;;;;;;;;;;;;;;;;5080265;28;5070;-63
2022/12/08 13:03:13;;;;;;;;;;;;;;;;;;5074141;28;4859;-68
2022/12/08 13:05:45;;;;;;;;;;;;;;;;;;5060790;28;3757;-69
2022/12/08 13:08:23;;;;;;;;;;;;;;;;;;5060042;28;4757;-66
2022/12/08 13:10:55;;;;;;;;;;;;;;;;;;5046906;28;4931;-66
2022/12/08 13:13:21;;;;;;;;;;;;;;;;;;5058850;28;5131;-72
2022/12/08 13:15:46;;;;;;;;;;;;;;;;;;5057197;28;5093;-68
2022/12/08 13:18:24;;;;;;;;;;;;;;;;;;5064901;28;5328;-69
2022/12/08 13:20:51;;;;;;;;;;;;;;;;;;5052579;28;4674;-66
2022/12/08 13:23:40;;;;;;;;;;;;;;;;;;5058381;28;3665;-67
2022/12/08 13:26:19;;;;;;;;;;;;;;;;;;5057892;28;4433;-68
2022/12/08 13:29:02;;;;;;;;;;;;;;;;;;5058885;28;5205;-66
2022/12/08 13:31:46;;;;;;;;;;;;;;;;;;5067905;28;5009;-68
2022/12/08 13:34:11;;;;;;;;;;;;;;;;;;5074095;28;5150;-68
2022/12/08 13:36:38;;;;;;;;;;;;;;;;;;5057315;28;4948;-66
2022/12/08 13:39:03;;;;;;;;;;;;;;;;;;5061216;28;5489;-63
2022/12/08 13:41:38;;;;;;;;;;;;;;;;;;5057590;28;3259;-60
2022/12/08 13:44:05;;;;;;;;;;;;;;;;;;5042888;28;4876;-62
2022/12/08 13:46:35;;;;;;;;;;;;;;;;;;5063594;28;5226;-61
2022/12/08 13:49:00;;;;;;;;;;;;;;;;;;5060556;28;5091;-60
2022/12/08 13:51:27;;;;;;;;;;;;;;;;;;5058085;28;5061;-61
2022/12/08 13:54:06;;;;;;;;;;;;;;;;;;5056443;28;5137;-60
2022/12/08 13:56:33;;;;;;;;;;;;;;;;;;5062258;28;3448;-63
2022/12/08 13:59:08;;;;;;;;;;;;;;;;;;5056065;28;4993;-62
2022/12/08 14:01:34;;;;;;;;;;;;;;;;;;5055398;28;5539;-61
2022/12/08 14:03:59;;;;;;;;;;;;;;;;;;5065357;28;5252;-61
2022/12/08 14:06:25;;;;;;;;;;;;;;;;;;5058447;28;4914;-61
2022/12/08 14:08:52;;;;;;;;;;;;;;;;;;5065025;28;5016;-66
2022/12/08 14:11:32;;;;;;;;;;;;;;;;;;5052734;28;3276;-61
2022/12/08 14:14:16;;;;;;;;;;;;;;;;;;5059324;28;4584;-61
2022/12/08 14:16:43;;;;;;;;;;;;;;;;;;5055194;28;5156;-61
2022/12/08 14:19:16;;;;;;;;;;;;;;;;;;5052916;28;5142;-61
2022/12/08 14:21:44;;;;;;;;;;;;;;;;;;5048966;28;4962;-64
2022/12/08 14:24:09;;;;;;;;;;;;;;;;;;5050518;28;4977;-60
2022/12/08 14:26:35;;;;;;;;;;;;;;;;;;5051491;28;3310;-63
2022/12/08 14:29:01;;;;;;;;;;;;;;;;;;5055198;28;5642;-62
2022/12/08 14:31:26;;;;;;;;;;;;;;;;;;5041422;28;5023;-60
2022/12/08 14:33:52;;;;;;;;;;;;;;;;;;5060883;28;4473;-60
2022/12/08 14:36:19;;;;;;;;;;;;;;;;;;5061587;28;5055;-60
2022/12/08 14:38:44;;;;;;;;;;;;;;;;;;5056015;28;1405;-60
2022/12/08 14:41:10;;;;;;;;;;;;;;;;;;5064217;28;5020;-59
2022/12/08 14:43:35;;;;;;;;;;;;;;;;;;5065800;28;5143;-59
2022/12/08 14:46:02;;;;;;;;;;;;;;;;;;5060056;28;4933;-56
2022/12/08 14:48:30;;;;;;;;;;;;;;;;;;5055982;28;4976;-59
2022/12/08 14:50:58;;;;;;;;;;;;;;;;;;5067492;28;5651;-59
2022/12/08 14:53:23;;;;;;;;;;;;;;;;;;5062306;28;4753;-59
2022/12/08 14:55:48;;;;;;;;;;;;;;;;;;5047467;28;4952;-60
2022/12/08 14:58:22;;;;;;;;;;;;;;;;;;5061480;28;4814;-59
2022/12/08 15:00:48;;;;;;;;;;;;;;;;;;5064725;28;5093;-61
2022/12/08 15:03:14;;;;;;;;;;;;;;;;;;5057975;28;4956;-57
2022/12/08 15:05:39;;;;;;;;;;;;;;;;;;5056011;28;1975;-59
2022/12/08 15:08:05;;;;;;;;;;;;;;;;;;5050608;28;5037;-60
2022/12/08 15:10:36;;;;;;;;;;;;;;;;;;5063969;28;4943;-59
2022/12/08 15:13:03;;;;;;;;;;;;;;;;;;5057995;28;5081;-58
2022/12/08 15:15:29;;;;;;;;;;;;;;;;;;5047072;28;5054;-61
2022/12/08 15:18:11;;;;;;;;;;;;;;;;;;5050282;28;5009;-60
2022/12/08 15:20:39;;;;;;;;;;;;;;;;;;5059999;28;4006;-61
2022/12/08 15:23:05;;;;;;;;;;;;;;;;;;5062433;28;5158;-61
2022/12/08 15:25:30;;;;;;;;;;;;;;;;;;5077786;28;5044;-60
2022/12/08 15:27:56;;;;;;;;;;;;;;;;;;5061039;28;5001;-66
2022/12/08 15:30:22;;;;;;;;;;;;;;;;;;5068524;28;5224;-71
2022/12/08 15:32:51;;;;;;;;;;;;;;;;;;5065770;28;1165;-70
2022/12/08 15:35:16;;;;;;;;;;;;;;;;;;5060326;28;4844;-68
2022/12/08 15:37:41;;;;;;;;;;;;;;;;;;5066067;28;4636;-69
2022/12/08 15:40:08;;;;;;;;;;;;;;;;;;5052727;28;4995;-70
2022/12/08 15:42:34;;;;;;;;;;;;;;;;;;5055553;28;5239;-66
2022/12/08 15:44:59;;;;;;;;;;;;;;;;;;5065490;28;5095;-66
2022/12/08 15:47:24;;;;;;;;;;;;;;;;;;5064499;28;1260;-67
2022/12/08 15:49:51;;;;;;;;;;;;;;;;;;5061820;28;5074;-61
2022/12/08 15:52:20;;;;;;;;;;;;;;;;;;5052531;28;5775;-61
2022/12/08 15:54:45;;;;;;;;;;;;;;;;;;5047764;28;4528;-61
2022/12/08 15:57:23;;;;;;;;;;;;;;;;;;5067114;28;5012;-61
2022/12/08 15:59:49;;;;;;;;;;;;;;;;;;5054600;28;4999;-60
2022/12/08 16:02:14;;;;;;;;;;;;;;;;;;5059650;28;3078;-60
2022/12/08 16:04:39;;;;;;;;;;;;;;;;;;5052761;28;4923;-61
2022/12/08 16:07:22;;;;;;;;;;;;;;;;;;5066079;28;4983;-63
2022/12/08 16:09:47;;;;;;;;;;;;;;;;;;5067797;28;5047;-61
2022/12/08 16:14:59;;;;;;;;;;;;;;;;;;5085556;28;5036;-60
2022/12/08 16:17:25;;;;;;;;;;;;;;;;;;5071680;28;3505;-60
2022/12/08 16:19:50;;;;;;;;;;;;;;;;;;5072717;28;5157;-61
2022/12/08 16:22:15;;;;;;;;;;;;;;;;;;5068927;28;5400;-61
2022/12/08 16:24:41;;;;;;;;;;;;;;;;;;5083586;28;5031;-61
2022/12/08 16:27:07;;;;;;;;;;;;;;;;;;5080021;28;5306;-61
2022/12/08 16:29:32;;;;;;;;;;;;;;;;;;5062773;28;1157;-62
2022/12/08 16:31:57;;;;;;;;;;;;;;;;;;5079477;28;4938;-57
2022/12/08 16:34:23;;;;;;;;;;;;;;;;;;5071763;28;5244;-61
2022/12/08 16:36:51;;;;;;;;;;;;;;;;;;5066298;28;5194;-61
2022/12/08 16:39:16;;;;;;;;;;;;;;;;;;5075704;28;5144;-63
2022/12/08 16:44:25;;;;;;;;;;;;;;;;;;5070063;28;4562;-62
2022/12/08 16:46:50;;;;;;;;;;;;;;;;;;5059469;28;4442;-60
2022/12/08 16:49:16;;;;;;;;;;;;;;;;;;5075607;28;4979;-60
2022/12/08 16:51:41;;;;;;;;;;;;;;;;;;5079089;28;5167;-61
2022/12/08 16:54:07;;;;;;;;;;;;;;;;;;5074699;28;4769;-62
2022/12/08 16:56:32;;;;;;;;;;;;;;;;;;5067989;28;3623;-58
2022/12/08 16:58:57;;;;;;;;;;;;;;;;;;5077109;28;5041;-56
2022/12/08 17:01:22;;;;;;;;;;;;;;;;;;5079266;28;4717;-61
2022/12/08 17:03:48;;;;;;;;;;;;;;;;;;5072993;28;5591;-62
2022/12/08 17:06:15;;;;;;;;;;;;;;;;;;5069627;28;5353;-61
2022/12/08 17:08:40;;;;;;;;;;;;;;;;;;5062807;28;3440;-62
2022/12/08 17:11:06;;;;;;;;;;;;;;;;;;5081166;28;4977;-61
2022/12/08 17:13:32;;;;;;;;;;;;;;;;;;5075591;28;5494;-60
2022/12/08 17:15:57;;;;;;;;;;;;;;;;;;5075165;28;5277;-57
2022/12/08 17:18:22;;;;;;;;;;;;;;;;;;5067753;28;4468;-61